sensor_id;sensor_type;location;lat;lon;timestamp;P1;durP1;ratioP1;P2;durP2;ratioP2
31206;SDS011;17834;52.992;8.856;2023-09-30T00:02:11;9.52;;;4.15;;
31206;SDS011;17834;52.992;8.856;2023-09-30T00:04:37;10.68;;;3.15;;
31206;SDS011;17834;52.992;8.856;2023-09-30T00:07:03;14.23;;;3.25;;
31206;SDS011;17834;52.992;8.856;2023-09-30T00:09:29;8.25;;;2.72;;
31206;SDS011;17834;52.992;8.856;2023-09-30T00:11:55;11.57;;;2.97;;
31206;SDS011;17834;52.992;8.856;2023-09-30T00:14:20;13.02;;;3.08;;
31206;SDS011;17834;52.992;8.856;2023-09-30T00:16:46;15.80;;;3.28;;
31206;SDS011;17834;52.992;8.856;2023-09-30T00:19:12;21.17;;;3.92;;
31206;SDS011;17834;52.992;8.856;2023-09-30T00:21:38;10.80;;;3.55;;
31206;SDS011;17834;52.992;8.856;2023-09-30T00:24:04;13.65;;;3.67;;
31206;SDS011;17834;52.992;8.856;2023-09-30T00:26:30;14.95;;;3.83;;
31206;SDS011;17834;52.992;8.856;2023-09-30T00:28:56;13.82;;;3.50;;
31206;SDS011;17834;52.992;8.856;2023-09-30T00:31:21;12.38;;;3.15;;
31206;SDS011;17834;52.992;8.856;2023-09-30T00:33:47;13.57;;;3.72;;
31206;SDS011;17834;52.992;8.856;2023-09-30T00:36:13;17.45;;;3.85;;
31206;SDS011;17834;52.992;8.856;2023-09-30T00:38:38;12.60;;;3.92;;
31206;SDS011;17834;52.992;8.856;2023-09-30T00:41:05;13.43;;;3.58;;
31206;SDS011;17834;52.992;8.856;2023-09-30T00:43:32;20.45;;;3.17;;
31206;SDS011;17834;52.992;8.856;2023-09-30T00:46:01;21.60;;;4.50;;
31206;SDS011;17834;52.992;8.856;2023-09-30T00:48:31;12.73;;;3.55;;
31206;SDS011;17834;52.992;8.856;2023-09-30T00:51:00;13.50;;;3.45;;
31206;SDS011;17834;52.992;8.856;2023-09-30T00:53:26;15.73;;;3.05;;
31206;SDS011;17834;52.992;8.856;2023-09-30T00:55:53;16.13;;;3.30;;
31206;SDS011;17834;52.992;8.856;2023-09-30T00:58:21;10.38;;;3.10;;
31206;SDS011;17834;52.992;8.856;2023-09-30T01:00:50;18.42;;;4.47;;
31206;SDS011;17834;52.992;8.856;2023-09-30T01:03:17;14.35;;;4.13;;
31206;SDS011;17834;52.992;8.856;2023-09-30T01:05:42;15.02;;;3.80;;
31206;SDS011;17834;52.992;8.856;2023-09-30T01:08:08;11.60;;;4.00;;
31206;SDS011;17834;52.992;8.856;2023-09-30T01:10:33;12.40;;;4.18;;
31206;SDS011;17834;52.992;8.856;2023-09-30T01:12:59;14.15;;;4.20;;
31206;SDS011;17834;52.992;8.856;2023-09-30T01:15:25;14.50;;;4.35;;
31206;SDS011;17834;52.992;8.856;2023-09-30T01:17:50;12.00;;;4.43;;
31206;SDS011;17834;52.992;8.856;2023-09-30T01:20:16;13.48;;;4.65;;
31206;SDS011;17834;52.992;8.856;2023-09-30T01:22:47;12.70;;;3.50;;
31206;SDS011;17834;52.992;8.856;2023-09-30T01:25:12;17.63;;;4.30;;
31206;SDS011;17834;52.992;8.856;2023-09-30T01:27:38;19.13;;;4.35;;
31206;SDS011;17834;52.992;8.856;2023-09-30T01:30:03;24.70;;;4.68;;
31206;SDS011;17834;52.992;8.856;2023-09-30T01:32:29;12.80;;;4.15;;
31206;SDS011;17834;52.992;8.856;2023-09-30T01:34:55;11.95;;;3.65;;
31206;SDS011;17834;52.992;8.856;2023-09-30T01:37:20;11.98;;;3.85;;
31206;SDS011;17834;52.992;8.856;2023-09-30T01:39:46;13.18;;;4.35;;
31206;SDS011;17834;52.992;8.856;2023-09-30T01:42:13;13.10;;;4.18;;
31206;SDS011;17834;52.992;8.856;2023-09-30T01:44:39;12.35;;;4.20;;
31206;SDS011;17834;52.992;8.856;2023-09-30T01:47:05;14.48;;;5.20;;
31206;SDS011;17834;52.992;8.856;2023-09-30T01:49:30;16.90;;;4.18;;
31206;SDS011;17834;52.992;8.856;2023-09-30T01:51:56;20.77;;;4.30;;
31206;SDS011;17834;52.992;8.856;2023-09-30T01:54:21;11.18;;;3.60;;
31206;SDS011;17834;52.992;8.856;2023-09-30T01:56:47;16.52;;;4.43;;
31206;SDS011;17834;52.992;8.856;2023-09-30T01:59:12;11.77;;;3.88;;
31206;SDS011;17834;52.992;8.856;2023-09-30T02:01:38;15.43;;;4.13;;
31206;SDS011;17834;52.992;8.856;2023-09-30T02:04:03;17.98;;;4.10;;
31206;SDS011;17834;52.992;8.856;2023-09-30T02:06:31;21.73;;;4.20;;
31206;SDS011;17834;52.992;8.856;2023-09-30T02:08:57;11.65;;;3.45;;
31206;SDS011;17834;52.992;8.856;2023-09-30T02:11:22;16.40;;;3.60;;
31206;SDS011;17834;52.992;8.856;2023-09-30T02:13:48;19.70;;;3.55;;
31206;SDS011;17834;52.992;8.856;2023-09-30T02:16:13;17.60;;;4.15;;
31206;SDS011;17834;52.992;8.856;2023-09-30T02:18:39;15.85;;;3.22;;
31206;SDS011;17834;52.992;8.856;2023-09-30T02:21:07;13.07;;;3.60;;
31206;SDS011;17834;52.992;8.856;2023-09-30T02:23:34;9.68;;;3.00;;
31206;SDS011;17834;52.992;8.856;2023-09-30T02:26:00;14.30;;;3.78;;
31206;SDS011;17834;52.992;8.856;2023-09-30T02:28:26;9.77;;;3.20;;
31206;SDS011;17834;52.992;8.856;2023-09-30T02:30:52;15.85;;;4.20;;
31206;SDS011;17834;52.992;8.856;2023-09-30T02:33:18;17.17;;;3.63;;
31206;SDS011;17834;52.992;8.856;2023-09-30T02:35:44;18.25;;;4.38;;
31206;SDS011;17834;52.992;8.856;2023-09-30T02:38:10;11.30;;;3.60;;
31206;SDS011;17834;52.992;8.856;2023-09-30T02:40:36;15.40;;;4.35;;
31206;SDS011;17834;52.992;8.856;2023-09-30T02:43:03;12.48;;;3.92;;
31206;SDS011;17834;52.992;8.856;2023-09-30T02:45:29;13.75;;;3.38;;
31206;SDS011;17834;52.992;8.856;2023-09-30T02:47:54;17.02;;;3.85;;
31206;SDS011;17834;52.992;8.856;2023-09-30T02:50:20;17.27;;;4.53;;
31206;SDS011;17834;52.992;8.856;2023-09-30T02:52:46;20.38;;;4.65;;
31206;SDS011;17834;52.992;8.856;2023-09-30T02:55:12;15.82;;;3.72;;
31206;SDS011;17834;52.992;8.856;2023-09-30T02:57:38;11.30;;;4.40;;
31206;SDS011;17834;52.992;8.856;2023-09-30T03:00:04;13.73;;;3.88;;
31206;SDS011;17834;52.992;8.856;2023-09-30T03:02:48;15.68;;;3.30;;
31206;SDS011;17834;52.992;8.856;2023-09-30T03:05:15;13.07;;;3.38;;
31206;SDS011;17834;52.992;8.856;2023-09-30T03:07:40;16.27;;;4.10;;
31206;SDS011;17834;52.992;8.856;2023-09-30T03:10:06;15.23;;;4.05;;
31206;SDS011;17834;52.992;8.856;2023-09-30T03:12:33;17.92;;;4.13;;
31206;SDS011;17834;52.992;8.856;2023-09-30T03:14:59;13.27;;;3.75;;
31206;SDS011;17834;52.992;8.856;2023-09-30T03:17:29;20.25;;;4.40;;
31206;SDS011;17834;52.992;8.856;2023-09-30T03:19:55;23.38;;;4.53;;
31206;SDS011;17834;52.992;8.856;2023-09-30T03:22:22;21.83;;;4.53;;
31206;SDS011;17834;52.992;8.856;2023-09-30T03:24:47;13.80;;;3.67;;
31206;SDS011;17834;52.992;8.856;2023-09-30T03:27:13;13.10;;;4.18;;
31206;SDS011;17834;52.992;8.856;2023-09-30T03:29:40;15.93;;;4.65;;
31206;SDS011;17834;52.992;8.856;2023-09-30T03:32:06;14.95;;;4.40;;
31206;SDS011;17834;52.992;8.856;2023-09-30T03:34:31;16.05;;;4.05;;
31206;SDS011;17834;52.992;8.856;2023-09-30T03:37:01;12.30;;;4.00;;
31206;SDS011;17834;52.992;8.856;2023-09-30T03:39:27;14.00;;;4.20;;
31206;SDS011;17834;52.992;8.856;2023-09-30T03:41:54;9.27;;;3.17;;
31206;SDS011;17834;52.992;8.856;2023-09-30T03:44:21;17.38;;;4.32;;
31206;SDS011;17834;52.992;8.856;2023-09-30T03:46:48;12.75;;;3.97;;
31206;SDS011;17834;52.992;8.856;2023-09-30T03:49:14;8.38;;;3.42;;
31206;SDS011;17834;52.992;8.856;2023-09-30T03:51:41;10.60;;;3.28;;
31206;SDS011;17834;52.992;8.856;2023-09-30T03:54:07;14.57;;;3.90;;
31206;SDS011;17834;52.992;8.856;2023-09-30T03:56:33;16.92;;;4.38;;
31206;SDS011;17834;52.992;8.856;2023-09-30T03:58:59;16.10;;;3.85;;
31206;SDS011;17834;52.992;8.856;2023-09-30T04:01:25;12.23;;;4.15;;
31206;SDS011;17834;52.992;8.856;2023-09-30T04:03:52;14.02;;;4.32;;
31206;SDS011;17834;52.992;8.856;2023-09-30T04:06:20;12.85;;;4.45;;
31206;SDS011;17834;52.992;8.856;2023-09-30T04:08:46;15.43;;;4.65;;
31206;SDS011;17834;52.992;8.856;2023-09-30T04:11:12;15.50;;;4.60;;
31206;SDS011;17834;52.992;8.856;2023-09-30T04:13:42;12.05;;;4.15;;
31206;SDS011;17834;52.992;8.856;2023-09-30T04:16:09;12.98;;;4.18;;
31206;SDS011;17834;52.992;8.856;2023-09-30T04:18:35;10.57;;;3.83;;
31206;SDS011;17834;52.992;8.856;2023-09-30T04:21:01;19.88;;;4.45;;
31206;SDS011;17834;52.992;8.856;2023-09-30T04:23:27;11.68;;;3.70;;
31206;SDS011;17834;52.992;8.856;2023-09-30T04:25:52;20.35;;;4.22;;
31206;SDS011;17834;52.992;8.856;2023-09-30T04:28:18;11.93;;;3.78;;
31206;SDS011;17834;52.992;8.856;2023-09-30T04:30:46;20.05;;;4.25;;
31206;SDS011;17834;52.992;8.856;2023-09-30T04:33:13;13.18;;;3.50;;
31206;SDS011;17834;52.992;8.856;2023-09-30T04:35:39;12.07;;;4.05;;
31206;SDS011;17834;52.992;8.856;2023-09-30T04:38:05;15.55;;;4.72;;
31206;SDS011;17834;52.992;8.856;2023-09-30T04:40:31;13.80;;;3.60;;
31206;SDS011;17834;52.992;8.856;2023-09-30T04:42:58;10.82;;;4.50;;
31206;SDS011;17834;52.992;8.856;2023-09-30T04:45:26;12.50;;;4.40;;
31206;SDS011;17834;52.992;8.856;2023-09-30T04:47:52;18.75;;;3.88;;
31206;SDS011;17834;52.992;8.856;2023-09-30T04:50:20;16.85;;;4.38;;
31206;SDS011;17834;52.992;8.856;2023-09-30T04:52:47;16.70;;;3.63;;
31206;SDS011;17834;52.992;8.856;2023-09-30T04:55:13;14.20;;;4.60;;
31206;SDS011;17834;52.992;8.856;2023-09-30T04:57:41;14.65;;;4.45;;
31206;SDS011;17834;52.992;8.856;2023-09-30T05:00:09;15.40;;;5.00;;
31206;SDS011;17834;52.992;8.856;2023-09-30T05:02:37;14.20;;;4.80;;
31206;SDS011;17834;52.992;8.856;2023-09-30T05:05:02;13.60;;;4.53;;
31206;SDS011;17834;52.992;8.856;2023-09-30T05:07:31;13.40;;;4.13;;
31206;SDS011;17834;52.992;8.856;2023-09-30T05:09:57;14.60;;;3.50;;
31206;SDS011;17834;52.992;8.856;2023-09-30T05:12:22;18.02;;;4.03;;
31206;SDS011;17834;52.992;8.856;2023-09-30T05:14:48;13.82;;;4.10;;
31206;SDS011;17834;52.992;8.856;2023-09-30T05:17:14;13.32;;;4.32;;
31206;SDS011;17834;52.992;8.856;2023-09-30T05:19:40;17.60;;;4.15;;
31206;SDS011;17834;52.992;8.856;2023-09-30T05:22:06;17.52;;;4.68;;
31206;SDS011;17834;52.992;8.856;2023-09-30T05:24:31;10.63;;;3.60;;
31206;SDS011;17834;52.992;8.856;2023-09-30T05:26:57;11.38;;;4.03;;
31206;SDS011;17834;52.992;8.856;2023-09-30T05:29:22;10.65;;;4.00;;
31206;SDS011;17834;52.992;8.856;2023-09-30T05:31:48;10.63;;;3.65;;
31206;SDS011;17834;52.992;8.856;2023-09-30T05:34:14;13.63;;;3.97;;
31206;SDS011;17834;52.992;8.856;2023-09-30T05:36:39;16.83;;;4.15;;
31206;SDS011;17834;52.992;8.856;2023-09-30T05:39:05;13.13;;;3.55;;
31206;SDS011;17834;52.992;8.856;2023-09-30T05:41:31;11.73;;;3.95;;
31206;SDS011;17834;52.992;8.856;2023-09-30T05:43:57;14.95;;;5.43;;
31206;SDS011;17834;52.992;8.856;2023-09-30T05:46:23;23.10;;;5.40;;
31206;SDS011;17834;52.992;8.856;2023-09-30T05:48:49;13.23;;;4.65;;
31206;SDS011;17834;52.992;8.856;2023-09-30T05:51:15;13.20;;;4.93;;
31206;SDS011;17834;52.992;8.856;2023-09-30T05:53:41;13.02;;;4.25;;
31206;SDS011;17834;52.992;8.856;2023-09-30T05:56:07;17.08;;;3.97;;
31206;SDS011;17834;52.992;8.856;2023-09-30T05:58:33;12.90;;;5.05;;
31206;SDS011;17834;52.992;8.856;2023-09-30T06:00:58;22.05;;;3.97;;
31206;SDS011;17834;52.992;8.856;2023-09-30T06:03:25;15.02;;;4.65;;
31206;SDS011;17834;52.992;8.856;2023-09-30T06:05:54;17.75;;;3.83;;
31206;SDS011;17834;52.992;8.856;2023-09-30T06:08:21;13.98;;;4.70;;
31206;SDS011;17834;52.992;8.856;2023-09-30T06:10:46;17.10;;;4.95;;
31206;SDS011;17834;52.992;8.856;2023-09-30T06:13:12;12.43;;;4.40;;
31206;SDS011;17834;52.992;8.856;2023-09-30T06:15:38;12.13;;;4.38;;
31206;SDS011;17834;52.992;8.856;2023-09-30T06:18:05;13.95;;;3.75;;
31206;SDS011;17834;52.992;8.856;2023-09-30T06:20:31;14.45;;;4.95;;
31206;SDS011;17834;52.992;8.856;2023-09-30T06:22:58;18.33;;;4.15;;
31206;SDS011;17834;52.992;8.856;2023-09-30T06:25:25;11.80;;;3.97;;
31206;SDS011;17834;52.992;8.856;2023-09-30T06:27:52;15.07;;;5.50;;
31206;SDS011;17834;52.992;8.856;2023-09-30T06:30:19;13.95;;;5.15;;
31206;SDS011;17834;52.992;8.856;2023-09-30T06:32:46;18.25;;;4.57;;
31206;SDS011;17834;52.992;8.856;2023-09-30T06:35:12;15.73;;;4.13;;
31206;SDS011;17834;52.992;8.856;2023-09-30T06:37:38;24.60;;;4.97;;
31206;SDS011;17834;52.992;8.856;2023-09-30T06:40:05;17.85;;;4.22;;
31206;SDS011;17834;52.992;8.856;2023-09-30T06:42:33;14.35;;;4.20;;
31206;SDS011;17834;52.992;8.856;2023-09-30T06:44:59;19.13;;;4.60;;
31206;SDS011;17834;52.992;8.856;2023-09-30T06:47:24;13.02;;;4.63;;
31206;SDS011;17834;52.992;8.856;2023-09-30T06:49:50;16.33;;;4.57;;
31206;SDS011;17834;52.992;8.856;2023-09-30T06:52:16;21.42;;;6.38;;
31206;SDS011;17834;52.992;8.856;2023-09-30T06:54:42;15.00;;;4.30;;
31206;SDS011;17834;52.992;8.856;2023-09-30T06:57:07;18.25;;;5.22;;
31206;SDS011;17834;52.992;8.856;2023-09-30T06:59:34;13.50;;;4.72;;
31206;SDS011;17834;52.992;8.856;2023-09-30T07:02:00;15.82;;;4.53;;
31206;SDS011;17834;52.992;8.856;2023-09-30T07:04:25;16.83;;;4.32;;
31206;SDS011;17834;52.992;8.856;2023-09-30T07:06:52;19.10;;;5.05;;
31206;SDS011;17834;52.992;8.856;2023-09-30T07:09:18;12.93;;;4.78;;
31206;SDS011;17834;52.992;8.856;2023-09-30T07:11:44;20.40;;;6.43;;
31206;SDS011;17834;52.992;8.856;2023-09-30T07:14:10;15.77;;;4.93;;
31206;SDS011;17834;52.992;8.856;2023-09-30T07:16:36;19.70;;;4.43;;
31206;SDS011;17834;52.992;8.856;2023-09-30T07:19:01;14.60;;;4.25;;
31206;SDS011;17834;52.992;8.856;2023-09-30T07:21:28;11.45;;;4.13;;
31206;SDS011;17834;52.992;8.856;2023-09-30T07:23:53;19.50;;;5.03;;
31206;SDS011;17834;52.992;8.856;2023-09-30T07:26:28;16.17;;;5.32;;
31206;SDS011;17834;52.992;8.856;2023-09-30T07:28:54;25.45;;;4.97;;
31206;SDS011;17834;52.992;8.856;2023-09-30T07:31:21;19.85;;;6.07;;
31206;SDS011;17834;52.992;8.856;2023-09-30T07:33:48;15.73;;;4.93;;
31206;SDS011;17834;52.992;8.856;2023-09-30T07:36:14;17.45;;;5.75;;
31206;SDS011;17834;52.992;8.856;2023-09-30T07:38:39;16.95;;;4.57;;
31206;SDS011;17834;52.992;8.856;2023-09-30T07:41:05;16.67;;;4.88;;
31206;SDS011;17834;52.992;8.856;2023-09-30T07:43:31;15.05;;;4.65;;
31206;SDS011;17834;52.992;8.856;2023-09-30T07:45:56;14.20;;;5.05;;
31206;SDS011;17834;52.992;8.856;2023-09-30T07:48:22;13.88;;;4.45;;
31206;SDS011;17834;52.992;8.856;2023-09-30T07:50:47;13.80;;;4.95;;
31206;SDS011;17834;52.992;8.856;2023-09-30T07:53:13;13.60;;;4.07;;
31206;SDS011;17834;52.992;8.856;2023-09-30T07:55:38;21.40;;;5.13;;
31206;SDS011;17834;52.992;8.856;2023-09-30T07:58:04;16.02;;;4.57;;
31206;SDS011;17834;52.992;8.856;2023-09-30T08:00:30;15.90;;;4.53;;
31206;SDS011;17834;52.992;8.856;2023-09-30T08:02:58;14.05;;;4.30;;
31206;SDS011;17834;52.992;8.856;2023-09-30T08:05:25;15.50;;;5.25;;
31206;SDS011;17834;52.992;8.856;2023-09-30T08:07:51;13.25;;;3.75;;
31206;SDS011;17834;52.992;8.856;2023-09-30T08:10:17;15.07;;;4.63;;
31206;SDS011;17834;52.992;8.856;2023-09-30T08:12:42;12.10;;;4.07;;
31206;SDS011;17834;52.992;8.856;2023-09-30T08:15:11;17.92;;;4.60;;
31206;SDS011;17834;52.992;8.856;2023-09-30T08:17:39;11.23;;;3.85;;
31206;SDS011;17834;52.992;8.856;2023-09-30T08:20:06;13.70;;;4.25;;
31206;SDS011;17834;52.992;8.856;2023-09-30T08:22:32;15.05;;;4.65;;
31206;SDS011;17834;52.992;8.856;2023-09-30T08:24:57;11.82;;;3.03;;
31206;SDS011;17834;52.992;8.856;2023-09-30T08:27:24;11.07;;;3.38;;
31206;SDS011;17834;52.992;8.856;2023-09-30T08:29:49;10.00;;;3.72;;
31206;SDS011;17834;52.992;8.856;2023-09-30T08:32:15;16.17;;;3.63;;
31206;SDS011;17834;52.992;8.856;2023-09-30T08:34:40;14.98;;;3.20;;
31206;SDS011;17834;52.992;8.856;2023-09-30T08:37:06;13.55;;;2.85;;
31206;SDS011;17834;52.992;8.856;2023-09-30T08:39:32;13.57;;;3.70;;
31206;SDS011;17834;52.992;8.856;2023-09-30T08:42:02;10.18;;;2.83;;
31206;SDS011;17834;52.992;8.856;2023-09-30T08:44:29;11.38;;;2.95;;
31206;SDS011;17834;52.992;8.856;2023-09-30T08:46:54;11.90;;;3.17;;
31206;SDS011;17834;52.992;8.856;2023-09-30T08:49:21;15.38;;;3.80;;
31206;SDS011;17834;52.992;8.856;2023-09-30T08:51:48;9.80;;;3.33;;
31206;SDS011;17834;52.992;8.856;2023-09-30T08:54:15;10.23;;;3.15;;
31206;SDS011;17834;52.992;8.856;2023-09-30T08:56:41;11.45;;;2.97;;
31206;SDS011;17834;52.992;8.856;2023-09-30T08:59:12;9.88;;;3.10;;
31206;SDS011;17834;52.992;8.856;2023-09-30T09:01:39;11.02;;;3.30;;
31206;SDS011;17834;52.992;8.856;2023-09-30T09:04:05;9.02;;;2.45;;
31206;SDS011;17834;52.992;8.856;2023-09-30T09:06:32;11.35;;;3.15;;
31206;SDS011;17834;52.992;8.856;2023-09-30T09:09:16;6.93;;;2.75;;
31206;SDS011;17834;52.992;8.856;2023-09-30T09:11:46;11.80;;;2.63;;
31206;SDS011;17834;52.992;8.856;2023-09-30T09:14:11;9.85;;;2.70;;
31206;SDS011;17834;52.992;8.856;2023-09-30T09:16:37;7.65;;;2.72;;
31206;SDS011;17834;52.992;8.856;2023-09-30T09:19:16;11.75;;;3.35;;
31206;SDS011;17834;52.992;8.856;2023-09-30T09:21:58;7.70;;;2.40;;
31206;SDS011;17834;52.992;8.856;2023-09-30T09:24:35;10.52;;;3.00;;
31206;SDS011;17834;52.992;8.856;2023-09-30T09:27:07;7.72;;;2.65;;
31206;SDS011;17834;52.992;8.856;2023-09-30T09:29:37;9.68;;;2.10;;
31206;SDS011;17834;52.992;8.856;2023-09-30T09:34:39;9.27;;;3.05;;
31206;SDS011;17834;52.992;8.856;2023-09-30T09:37:12;6.30;;;2.65;;
31206;SDS011;17834;52.992;8.856;2023-09-30T09:39:55;8.32;;;2.72;;
31206;SDS011;17834;52.992;8.856;2023-09-30T09:44:54;5.00;;;2.50;;
31206;SDS011;17834;52.992;8.856;2023-09-30T09:47:21;7.70;;;2.10;;
31206;SDS011;17834;52.992;8.856;2023-09-30T09:49:48;4.85;;;1.80;;
31206;SDS011;17834;52.992;8.856;2023-09-30T09:52:14;6.20;;;2.03;;
31206;SDS011;17834;52.992;8.856;2023-09-30T09:54:41;14.07;;;2.22;;
31206;SDS011;17834;52.992;8.856;2023-09-30T09:57:09;7.13;;;1.67;;
31206;SDS011;17834;52.992;8.856;2023-09-30T09:59:36;11.40;;;1.85;;
31206;SDS011;17834;52.992;8.856;2023-09-30T10:02:02;7.47;;;1.83;;
31206;SDS011;17834;52.992;8.856;2023-09-30T10:04:32;3.97;;;1.48;;
31206;SDS011;17834;52.992;8.856;2023-09-30T10:06:58;7.38;;;2.00;;
31206;SDS011;17834;52.992;8.856;2023-09-30T10:09:25;3.58;;;1.52;;
31206;SDS011;17834;52.992;8.856;2023-09-30T10:11:56;10.93;;;1.88;;
31206;SDS011;17834;52.992;8.856;2023-09-30T10:14:33;8.85;;;2.08;;
31206;SDS011;17834;52.992;8.856;2023-09-30T10:16:59;8.25;;;3.03;;
31206;SDS011;17834;52.992;8.856;2023-09-30T10:19:25;11.45;;;1.95;;
31206;SDS011;17834;52.992;8.856;2023-09-30T10:24:44;5.90;;;1.60;;
31206;SDS011;17834;52.992;8.856;2023-09-30T10:29:48;4.60;;;1.63;;
31206;SDS011;17834;52.992;8.856;2023-09-30T10:32:18;6.57;;;1.60;;
31206;SDS011;17834;52.992;8.856;2023-09-30T10:34:50;6.97;;;1.70;;
31206;SDS011;17834;52.992;8.856;2023-09-30T10:37:23;5.90;;;1.58;;
31206;SDS011;17834;52.992;8.856;2023-09-30T10:39:56;5.32;;;1.38;;
31206;SDS011;17834;52.992;8.856;2023-09-30T10:42:43;6.43;;;2.15;;
31206;SDS011;17834;52.992;8.856;2023-09-30T10:50:50;6.65;;;1.20;;
31206;SDS011;17834;52.992;8.856;2023-09-30T10:53:16;5.22;;;1.55;;
31206;SDS011;17834;52.992;8.856;2023-09-30T10:55:43;6.63;;;1.60;;
31206;SDS011;17834;52.992;8.856;2023-09-30T10:58:12;5.72;;;1.80;;
31206;SDS011;17834;52.992;8.856;2023-09-30T11:00:38;7.97;;;1.38;;
31206;SDS011;17834;52.992;8.856;2023-09-30T11:03:04;9.48;;;2.28;;
31206;SDS011;17834;52.992;8.856;2023-09-30T11:05:30;8.60;;;1.50;;
31206;SDS011;17834;52.992;8.856;2023-09-30T11:07:59;9.43;;;2.45;;
31206;SDS011;17834;52.992;8.856;2023-09-30T11:10:28;9.23;;;1.50;;
31206;SDS011;17834;52.992;8.856;2023-09-30T11:12:56;5.85;;;1.30;;
31206;SDS011;17834;52.992;8.856;2023-09-30T11:15:23;6.18;;;1.27;;
31206;SDS011;17834;52.992;8.856;2023-09-30T11:17:49;3.95;;;0.90;;
31206;SDS011;17834;52.992;8.856;2023-09-30T11:20:17;9.98;;;1.52;;
31206;SDS011;17834;52.992;8.856;2023-09-30T11:22:43;6.30;;;2.20;;
31206;SDS011;17834;52.992;8.856;2023-09-30T11:25:16;8.65;;;1.52;;
31206;SDS011;17834;52.992;8.856;2023-09-30T11:27:43;6.15;;;1.60;;
31206;SDS011;17834;52.992;8.856;2023-09-30T11:30:09;4.85;;;1.23;;
31206;SDS011;17834;52.992;8.856;2023-09-30T11:32:37;6.50;;;1.50;;
31206;SDS011;17834;52.992;8.856;2023-09-30T11:35:04;6.30;;;1.60;;
31206;SDS011;17834;52.992;8.856;2023-09-30T11:37:46;5.57;;;1.60;;
31206;SDS011;17834;52.992;8.856;2023-09-30T11:40:13;6.90;;;1.45;;
31206;SDS011;17834;52.992;8.856;2023-09-30T11:42:39;8.85;;;1.80;;
31206;SDS011;17834;52.992;8.856;2023-09-30T11:45:18;8.45;;;1.67;;
31206;SDS011;17834;52.992;8.856;2023-09-30T11:47:45;6.80;;;1.70;;
31206;SDS011;17834;52.992;8.856;2023-09-30T11:50:11;6.65;;;1.52;;
31206;SDS011;17834;52.992;8.856;2023-09-30T11:52:37;7.30;;;1.67;;
31206;SDS011;17834;52.992;8.856;2023-09-30T11:55:05;3.13;;;1.52;;
31206;SDS011;17834;52.992;8.856;2023-09-30T11:57:31;6.30;;;1.25;;
31206;SDS011;17834;52.992;8.856;2023-09-30T11:59:56;5.53;;;1.50;;
31206;SDS011;17834;52.992;8.856;2023-09-30T12:02:22;9.23;;;1.85;;
31206;SDS011;17834;52.992;8.856;2023-09-30T12:04:47;5.72;;;1.48;;
31206;SDS011;17834;52.992;8.856;2023-09-30T12:07:13;5.68;;;1.65;;
31206;SDS011;17834;52.992;8.856;2023-09-30T12:09:38;4.95;;;1.10;;
31206;SDS011;17834;52.992;8.856;2023-09-30T12:12:04;5.18;;;1.52;;
31206;SDS011;17834;52.992;8.856;2023-09-30T12:14:34;8.88;;;2.20;;
31206;SDS011;17834;52.992;8.856;2023-09-30T12:16:59;9.10;;;1.70;;
31206;SDS011;17834;52.992;8.856;2023-09-30T12:19:25;7.82;;;1.50;;
31206;SDS011;17834;52.992;8.856;2023-09-30T12:21:51;6.15;;;1.83;;
31206;SDS011;17834;52.992;8.856;2023-09-30T12:24:17;7.80;;;1.35;;
31206;SDS011;17834;52.992;8.856;2023-09-30T12:26:47;5.43;;;1.48;;
31206;SDS011;17834;52.992;8.856;2023-09-30T12:29:16;5.90;;;1.02;;
31206;SDS011;17834;52.992;8.856;2023-09-30T12:31:47;3.55;;;0.70;;
31206;SDS011;17834;52.992;8.856;2023-09-30T12:34:13;6.22;;;2.22;;
31206;SDS011;17834;52.992;8.856;2023-09-30T12:36:39;5.88;;;1.10;;
31206;SDS011;17834;52.992;8.856;2023-09-30T12:39:05;4.70;;;1.27;;
31206;SDS011;17834;52.992;8.856;2023-09-30T12:41:39;4.20;;;1.48;;
31206;SDS011;17834;52.992;8.856;2023-09-30T12:44:06;6.30;;;1.35;;
31206;SDS011;17834;52.992;8.856;2023-09-30T12:46:32;4.38;;;1.42;;
31206;SDS011;17834;52.992;8.856;2023-09-30T12:49:00;3.38;;;1.40;;
31206;SDS011;17834;52.992;8.856;2023-09-30T12:51:27;8.38;;;1.65;;
31206;SDS011;17834;52.992;8.856;2023-09-30T12:53:52;3.42;;;1.58;;
31206;SDS011;17834;52.992;8.856;2023-09-30T12:56:18;6.85;;;1.70;;
31206;SDS011;17834;52.992;8.856;2023-09-30T12:58:44;5.32;;;1.40;;
31206;SDS011;17834;52.992;8.856;2023-09-30T13:01:09;5.85;;;1.60;;
31206;SDS011;17834;52.992;8.856;2023-09-30T13:03:35;4.88;;;1.40;;
31206;SDS011;17834;52.992;8.856;2023-09-30T13:06:01;6.68;;;1.67;;
31206;SDS011;17834;52.992;8.856;2023-09-30T13:08:26;6.32;;;1.63;;
31206;SDS011;17834;52.992;8.856;2023-09-30T13:10:54;4.85;;;1.40;;
31206;SDS011;17834;52.992;8.856;2023-09-30T13:13:20;6.97;;;1.50;;
31206;SDS011;17834;52.992;8.856;2023-09-30T13:15:45;5.97;;;1.45;;
31206;SDS011;17834;52.992;8.856;2023-09-30T13:18:11;6.03;;;1.38;;
31206;SDS011;17834;52.992;8.856;2023-09-30T13:20:36;5.18;;;1.40;;
31206;SDS011;17834;52.992;8.856;2023-09-30T13:23:02;8.05;;;1.67;;
31206;SDS011;17834;52.992;8.856;2023-09-30T13:25:28;5.18;;;1.20;;
31206;SDS011;17834;52.992;8.856;2023-09-30T13:27:54;4.32;;;1.23;;
31206;SDS011;17834;52.992;8.856;2023-09-30T13:30:19;4.18;;;1.27;;
31206;SDS011;17834;52.992;8.856;2023-09-30T13:32:46;6.50;;;1.45;;
31206;SDS011;17834;52.992;8.856;2023-09-30T13:35:11;4.88;;;1.40;;
31206;SDS011;17834;52.992;8.856;2023-09-30T13:37:37;8.30;;;1.63;;
31206;SDS011;17834;52.992;8.856;2023-09-30T13:40:02;4.88;;;1.40;;
31206;SDS011;17834;52.992;8.856;2023-09-30T13:42:36;6.05;;;1.42;;
31206;SDS011;17834;52.992;8.856;2023-09-30T13:45:02;4.75;;;0.90;;
31206;SDS011;17834;52.992;8.856;2023-09-30T13:47:28;3.50;;;1.15;;
31206;SDS011;17834;52.992;8.856;2023-09-30T13:49:54;5.50;;;1.00;;
31206;SDS011;17834;52.992;8.856;2023-09-30T13:52:20;5.22;;;1.52;;
31206;SDS011;17834;52.992;8.856;2023-09-30T13:54:45;6.28;;;1.23;;
31206;SDS011;17834;52.992;8.856;2023-09-30T13:57:12;5.80;;;1.27;;
31206;SDS011;17834;52.992;8.856;2023-09-30T13:59:39;7.07;;;1.30;;
31206;SDS011;17834;52.992;8.856;2023-09-30T14:02:04;5.78;;;1.00;;
31206;SDS011;17834;52.992;8.856;2023-09-30T14:04:30;5.80;;;1.20;;
31206;SDS011;17834;52.992;8.856;2023-09-30T14:07:02;4.75;;;1.58;;
31206;SDS011;17834;52.992;8.856;2023-09-30T14:09:28;6.82;;;1.38;;
31206;SDS011;17834;52.992;8.856;2023-09-30T14:11:54;3.53;;;1.08;;
31206;SDS011;17834;52.992;8.856;2023-09-30T14:14:20;5.95;;;1.48;;
31206;SDS011;17834;52.992;8.856;2023-09-30T14:16:45;6.75;;;1.42;;
31206;SDS011;17834;52.992;8.856;2023-09-30T14:19:12;4.07;;;1.92;;
31206;SDS011;17834;52.992;8.856;2023-09-30T14:21:38;4.63;;;1.30;;
31206;SDS011;17834;52.992;8.856;2023-09-30T14:24:07;7.90;;;1.90;;
31206;SDS011;17834;52.992;8.856;2023-09-30T14:26:32;4.80;;;1.50;;
31206;SDS011;17834;52.992;8.856;2023-09-30T14:28:58;10.27;;;1.73;;
31206;SDS011;17834;52.992;8.856;2023-09-30T14:31:24;3.70;;;1.60;;
31206;SDS011;17834;52.992;8.856;2023-09-30T14:33:50;5.20;;;1.48;;
31206;SDS011;17834;52.992;8.856;2023-09-30T14:36:18;5.25;;;1.50;;
31206;SDS011;17834;52.992;8.856;2023-09-30T14:38:46;10.65;;;1.30;;
31206;SDS011;17834;52.992;8.856;2023-09-30T14:41:13;8.73;;;1.52;;
31206;SDS011;17834;52.992;8.856;2023-09-30T14:43:39;5.85;;;1.50;;
31206;SDS011;17834;52.992;8.856;2023-09-30T14:46:04;6.35;;;1.35;;
31206;SDS011;17834;52.992;8.856;2023-09-30T14:48:30;4.00;;;1.20;;
31206;SDS011;17834;52.992;8.856;2023-09-30T14:50:56;3.95;;;1.23;;
31206;SDS011;17834;52.992;8.856;2023-09-30T14:53:22;5.45;;;1.30;;